sensor_id;sensor_type;location;lat;lon;timestamp;pressure;altitude;pressure_sealevel;temperature;humidity
19447;BME280;9862;49.462;11.054;2023-02-14T00:01:13;100027.50;;;7.07;100.00
19447;BME280;9862;49.462;11.054;2023-02-14T00:03:40;100030.84;;;7.09;100.00
19447;BME280;9862;49.462;11.054;2023-02-14T00:06:08;100031.13;;;7.06;100.00
19447;BME280;9862;49.462;11.054;2023-02-14T00:08:35;100025.81;;;7.06;100.00
19447;BME280;9862;49.462;11.054;2023-02-14T00:11:02;100038.03;;;6.87;100.00
19447;BME280;9862;49.462;11.054;2023-02-14T00:13:29;100032.75;;;6.87;100.00
19447;BME280;9862;49.462;11.054;2023-02-14T00:15:57;100028.16;;;6.89;100.00
19447;BME280;9862;49.462;11.054;2023-02-14T00:18:23;100029.25;;;6.87;100.00
19447;BME280;9862;49.462;11.054;2023-02-14T00:21:10;100021.84;;;6.81;100.00
19447;BME280;9862;49.462;11.054;2023-02-14T00:23:37;100025.59;;;6.69;100.00
19447;BME280;9862;49.462;11.054;2023-02-14T00:26:04;100019.84;;;6.64;100.00
19447;BME280;9862;49.462;11.054;2023-02-14T00:28:30;100022.94;;;6.69;100.00
19447;BME280;9862;49.462;11.054;2023-02-14T00:30:58;100025.34;;;6.81;100.00
19447;BME280;9862;49.462;11.054;2023-02-14T00:33:25;100029.59;;;6.63;100.00
19447;BME280;9862;49.462;11.054;2023-02-14T00:35:52;100036.31;;;6.67;100.00
19447;BME280;9862;49.462;11.054;2023-02-14T00:38:18;100036.59;;;6.74;100.00
19447;BME280;9862;49.462;11.054;2023-02-14T00:40:55;100032.09;;;6.65;100.00
19447;BME280;9862;49.462;11.054;2023-02-14T00:43:21;100027.41;;;6.68;100.00
19447;BME280;9862;49.462;11.054;2023-02-14T00:45:48;100025.72;;;6.67;100.00
19447;BME280;9862;49.462;11.054;2023-02-14T00:48:16;100030.28;;;6.65;100.00
19447;BME280;9862;49.462;11.054;2023-02-14T00:50:43;100034.63;;;6.66;100.00
19447;BME280;9862;49.462;11.054;2023-02-14T00:53:10;100030.47;;;6.73;100.00
19447;BME280;9862;49.462;11.054;2023-02-14T00:55:37;100034.69;;;6.85;100.00
19447;BME280;9862;49.462;11.054;2023-02-14T00:58:03;100031.75;;;6.79;100.00
19447;BME280;9862;49.462;11.054;2023-02-14T01:00:30;100044.13;;;6.78;100.00
19447;BME280;9862;49.462;11.054;2023-02-14T01:02:56;100039.09;;;6.75;100.00
19447;BME280;9862;49.462;11.054;2023-02-14T01:05:24;100035.22;;;6.79;100.00
19447;BME280;9862;49.462;11.054;2023-02-14T01:07:51;100027.28;;;6.79;100.00
19447;BME280;9862;49.462;11.054;2023-02-14T01:10:17;100038.19;;;6.86;100.00
19447;BME280;9862;49.462;11.054;2023-02-14T01:12:44;100027.03;;;6.92;100.00
19447;BME280;9862;49.462;11.054;2023-02-14T01:15:11;100032.31;;;6.82;100.00
19447;BME280;9862;49.462;11.054;2023-02-14T01:17:37;100035.91;;;6.81;100.00
19447;BME280;9862;49.462;11.054;2023-02-14T01:20:06;100033.00;;;6.84;100.00
19447;BME280;9862;49.462;11.054;2023-02-14T01:22:35;100036.38;;;6.86;100.00
19447;BME280;9862;49.462;11.054;2023-02-14T01:25:02;100034.09;;;6.82;100.00
19447;BME280;9862;49.462;11.054;2023-02-14T01:27:28;100041.22;;;6.81;100.00
19447;BME280;9862;49.462;11.054;2023-02-14T01:29:55;100034.91;;;6.73;100.00
19447;BME280;9862;49.462;11.054;2023-02-14T01:32:22;100036.72;;;6.72;100.00
19447;BME280;9862;49.462;11.054;2023-02-14T01:34:48;100043.03;;;6.81;100.00
19447;BME280;9862;49.462;11.054;2023-02-14T01:37:15;100045.25;;;6.76;100.00
19447;BME280;9862;49.462;11.054;2023-02-14T01:39:43;100039.94;;;6.66;100.00
19447;BME280;9862;49.462;11.054;2023-02-14T01:42:09;100045.31;;;6.65;100.00
19447;BME280;9862;49.462;11.054;2023-02-14T01:44:56;100036.56;;;6.64;100.00
19447;BME280;9862;49.462;11.054;2023-02-14T01:47:24;100034.09;;;6.72;100.00
19447;BME280;9862;49.462;11.054;2023-02-14T01:49:55;100035.75;;;6.73;100.00
19447;BME280;9862;49.462;11.054;2023-02-14T01:52:28;100039.69;;;6.79;100.00
19447;BME280;9862;49.462;11.054;2023-02-14T01:55:00;100043.59;;;6.84;100.00
19447;BME280;9862;49.462;11.054;2023-02-14T01:57:32;100029.41;;;6.85;100.00
19447;BME280;9862;49.462;11.054;2023-02-14T02:00:00;100037.91;;;6.89;100.00
19447;BME280;9862;49.462;11.054;2023-02-14T02:02:41;100027.88;;;6.93;100.00
19447;BME280;9862;49.462;11.054;2023-02-14T02:05:08;100026.06;;;7.03;100.00
19447;BME280;9862;49.462;11.054;2023-02-14T02:07:35;100024.78;;;6.78;100.00
19447;BME280;9862;49.462;11.054;2023-02-14T02:10:06;100034.63;;;6.66;100.00
19447;BME280;9862;49.462;11.054;2023-02-14T02:12:33;100030.44;;;6.64;100.00
19447;BME280;9862;49.462;11.054;2023-02-14T02:15:01;100029.88;;;6.60;100.00
19447;BME280;9862;49.462;11.054;2023-02-14T02:17:34;100022.63;;;6.62;100.00
19447;BME280;9862;49.462;11.054;2023-02-14T02:20:41;100021.09;;;6.59;100.00
19447;BME280;9862;49.462;11.054;2023-02-14T02:23:39;100023.72;;;6.50;100.00
19447;BME280;9862;49.462;11.054;2023-02-14T02:32:40;100022.19;;;6.26;100.00
19447;BME280;9862;49.462;11.054;2023-02-14T02:35:38;100026.53;;;6.27;100.00
19447;BME280;9862;49.462;11.054;2023-02-14T02:38:18;100033.09;;;6.33;100.00
19447;BME280;9862;49.462;11.054;2023-02-14T02:40:57;100027.94;;;6.31;100.00
19447;BME280;9862;49.462;11.054;2023-02-14T02:43:37;100021.69;;;6.32;100.00
19447;BME280;9862;49.462;11.054;2023-02-14T02:46:10;100020.56;;;6.35;100.00
19447;BME280;9862;49.462;11.054;2023-02-14T02:49:02;100020.06;;;6.41;100.00
19447;BME280;9862;49.462;11.054;2023-02-14T02:51:36;100017.84;;;6.46;100.00
19447;BME280;9862;49.462;11.054;2023-02-14T02:54:29;100020.97;;;6.61;100.00
19447;BME280;9862;49.462;11.054;2023-02-14T02:57:00;100029.53;;;6.44;100.00
19447;BME280;9862;49.462;11.054;2023-02-14T02:59:30;100031.28;;;6.34;100.00
19447;BME280;9862;49.462;11.054;2023-02-14T03:02:06;100031.09;;;6.25;100.00
19447;BME280;9862;49.462;11.054;2023-02-14T03:04:39;100029.38;;;6.15;100.00
19447;BME280;9862;49.462;11.054;2023-02-14T03:07:20;100021.63;;;6.23;100.00
19447;BME280;9862;49.462;11.054;2023-02-14T03:10:05;100020.28;;;6.28;100.00
19447;BME280;9862;49.462;11.054;2023-02-14T03:12:55;100020.09;;;6.20;100.00
19447;BME280;9862;49.462;11.054;2023-02-14T03:15:37;100017.50;;;6.30;100.00
19447;BME280;9862;49.462;11.054;2023-02-14T03:18:08;100026.09;;;6.22;100.00
19447;BME280;9862;49.462;11.054;2023-02-14T03:20:48;100033.56;;;6.17;100.00
19447;BME280;9862;49.462;11.054;2023-02-14T03:23:20;100030.22;;;6.15;100.00
19447;BME280;9862;49.462;11.054;2023-02-14T03:25:58;100027.34;;;6.18;100.00
19447;BME280;9862;49.462;11.054;2023-02-14T03:28:32;100023.56;;;6.21;100.00
19447;BME280;9862;49.462;11.054;2023-02-14T03:31:07;100037.50;;;6.23;100.00
19447;BME280;9862;49.462;11.054;2023-02-14T03:33:43;100027.38;;;6.28;100.00
19447;BME280;9862;49.462;11.054;2023-02-14T03:36:14;100028.66;;;6.34;100.00
19447;BME280;9862;49.462;11.054;2023-02-14T03:38:46;100031.97;;;6.36;100.00
19447;BME280;9862;49.462;11.054;2023-02-14T03:41:19;100029.53;;;6.44;100.00
19447;BME280;9862;49.462;11.054;2023-02-14T03:43:49;100024.53;;;6.50;100.00
19447;BME280;9862;49.462;11.054;2023-02-14T03:46:18;100025.94;;;6.54;100.00
19447;BME280;9862;49.462;11.054;2023-02-14T03:48:47;100024.84;;;6.57;100.00
19447;BME280;9862;49.462;11.054;2023-02-14T03:51:17;100019.16;;;6.62;100.00
19447;BME280;9862;49.462;11.054;2023-02-14T03:53:48;100019.56;;;6.57;100.00
19447;BME280;9862;49.462;11.054;2023-02-14T03:56:21;100018.84;;;6.55;100.00
19447;BME280;9862;49.462;11.054;2023-02-14T03:58:55;100021.25;;;6.58;100.00
19447;BME280;9862;49.462;11.054;2023-02-14T04:01:24;100009.78;;;6.48;100.00
19447;BME280;9862;49.462;11.054;2023-02-14T04:03:54;100015.06;;;6.48;100.00
19447;BME280;9862;49.462;11.054;2023-02-14T04:06:22;100021.44;;;6.45;100.00
19447;BME280;9862;49.462;11.054;2023-02-14T04:08:50;100022.28;;;6.46;100.00
19447;BME280;9862;49.462;11.054;2023-02-14T04:11:17;100025.34;;;6.41;100.00
19447;BME280;9862;49.462;11.054;2023-02-14T04:13:44;100024.78;;;6.38;100.00
19447;BME280;9862;49.462;11.054;2023-02-14T04:16:10;100023.09;;;6.37;100.00
19447;BME280;9862;49.462;11.054;2023-02-14T04:18:37;100022.28;;;6.46;100.00
19447;BME280;9862;49.462;11.054;2023-02-14T04:21:21;100027.16;;;6.41;100.00
19447;BME280;9862;49.462;11.054;2023-02-14T04:23:48;100020.56;;;6.35;100.00
19447;BME280;9862;49.462;11.054;2023-02-14T04:26:15;100023.09;;;6.37;100.00
19447;BME280;9862;49.462;11.054;2023-02-14T04:28:42;100017.22;;;6.33;100.00
19447;BME280;9862;49.462;11.054;2023-02-14T04:31:09;100017.78;;;6.37;100.00
19447;BME280;9862;49.462;11.054;2023-02-14T04:33:35;100013.94;;;6.41;100.00
19447;BME280;9862;49.462;11.054;2023-02-14T04:36:04;100011.97;;;6.43;100.00
19447;BME280;9862;49.462;11.054;2023-02-14T04:38:31;100008.13;;;6.47;100.00
19447;BME280;9862;49.462;11.054;2023-02-14T04:40:57;100010.03;;;6.45;100.00
19447;BME280;9862;49.462;11.054;2023-02-14T04:43:25;100012.00;;;6.52;100.00
19447;BME280;9862;49.462;11.054;2023-02-14T04:45:52;100002.00;;;6.56;100.00
19447;BME280;9862;49.462;11.054;2023-02-14T04:48:18;99997.44;;;6.58;100.00
19447;BME280;9862;49.462;11.054;2023-02-14T04:50:50;99994.78;;;6.58;100.00
19447;BME280;9862;49.462;11.054;2023-02-14T04:53:16;99992.97;;;6.58;100.00
19447;BME280;9862;49.462;11.054;2023-02-14T04:55:43;99989.50;;;6.58;100.00
19447;BME280;9862;49.462;11.054;2023-02-14T04:58:10;99993.94;;;6.57;100.00
19447;BME280;9862;49.462;11.054;2023-02-14T05:00:38;99993.63;;;6.51;100.00
19447;BME280;9862;49.462;11.054;2023-02-14T05:03:05;99991.00;;;6.51;100.00
19447;BME280;9862;49.462;11.054;2023-02-14T05:05:31;99986.69;;;6.50;100.00
19447;BME280;9862;49.462;11.054;2023-02-14T05:07:58;99989.19;;;6.51;100.00
19447;BME280;9862;49.462;11.054;2023-02-14T05:10:24;99998.94;;;6.51;100.00
19447;BME280;9862;49.462;11.054;2023-02-14T05:12:51;99988.34;;;6.51;100.00
19447;BME280;9862;49.462;11.054;2023-02-14T05:15:17;99987.25;;;6.53;100.00
19447;BME280;9862;49.462;11.054;2023-02-14T05:17:45;99988.91;;;6.54;100.00
19447;BME280;9862;49.462;11.054;2023-02-14T05:20:12;99983.47;;;6.56;100.00
19447;BME280;9862;49.462;11.054;2023-02-14T05:22:39;99988.53;;;6.59;100.00
19447;BME280;9862;49.462;11.054;2023-02-14T05:25:05;99988.53;;;6.59;100.00
19447;BME280;9862;49.462;11.054;2023-02-14T05:27:32;99992.69;;;6.62;100.00
19447;BME280;9862;49.462;11.054;2023-02-14T05:29:59;99979.75;;;6.58;100.00
19447;BME280;9862;49.462;11.054;2023-02-14T05:32:25;99990.56;;;6.55;100.00
19447;BME280;9862;49.462;11.054;2023-02-14T05:34:53;99981.94;;;6.53;100.00
19447;BME280;9862;49.462;11.054;2023-02-14T05:37:20;99987.09;;;6.55;100.00
19447;BME280;9862;49.462;11.054;2023-02-14T05:39:46;99987.28;;;6.63;100.00
19447;BME280;9862;49.462;11.054;2023-02-14T05:42:13;99985.56;;;6.52;100.00
19447;BME280;9862;49.462;11.054;2023-02-14T05:44:40;99980.25;;;6.43;100.00
19447;BME280;9862;49.462;11.054;2023-02-14T05:47:06;99976.38;;;6.47;100.00
19447;BME280;9862;49.462;11.054;2023-02-14T05:49:33;99981.59;;;6.27;100.00
19447;BME280;9862;49.462;11.054;2023-02-14T05:52:02;99984.56;;;6.13;100.00
19447;BME280;9862;49.462;11.054;2023-02-14T05:54:28;99991.25;;;6.17;100.00
19447;BME280;9862;49.462;11.054;2023-02-14T05:56:55;99983.19;;;6.09;100.00
19447;BME280;9862;49.462;11.054;2023-02-14T05:59:21;99978.69;;;6.00;100.00
19447;BME280;9862;49.462;11.054;2023-02-14T06:01:48;99984.66;;;6.02;100.00
19447;BME280;9862;49.462;11.054;2023-02-14T06:04:15;99974.53;;;6.07;100.00
19447;BME280;9862;49.462;11.054;2023-02-14T06:06:41;99975.94;;;6.11;100.00
19447;BME280;9862;49.462;11.054;2023-02-14T06:09:09;99981.25;;;6.11;100.00
19447;BME280;9862;49.462;11.054;2023-02-14T06:11:36;99970.97;;;6.18;100.00
19447;BME280;9862;49.462;11.054;2023-02-14T06:14:02;99978.94;;;6.27;100.00
19447;BME280;9862;49.462;11.054;2023-02-14T06:16:29;99974.78;;;6.35;100.00
19447;BME280;9862;49.462;11.054;2023-02-14T06:18:56;99973.44;;;6.40;100.00
19447;BME280;9862;49.462;11.054;2023-02-14T06:21:23;99968.69;;;6.44;100.00
19447;BME280;9862;49.462;11.054;2023-02-14T06:23:50;99981.91;;;6.44;100.00
19447;BME280;9862;49.462;11.054;2023-02-14T06:26:18;99976.06;;;6.40;100.00
19447;BME280;9862;49.462;11.054;2023-02-14T06:28:45;99979.56;;;6.41;100.00
19447;BME280;9862;49.462;11.054;2023-02-14T06:31:14;99986.06;;;6.37;100.00
19447;BME280;9862;49.462;11.054;2023-02-14T06:33:41;99982.84;;;6.33;100.00
19447;BME280;9862;49.462;11.054;2023-02-14T06:36:08;99991.63;;;6.34;100.00
19447;BME280;9862;49.462;11.054;2023-02-14T06:38:35;99990.00;;;6.42;100.00
19447;BME280;9862;49.462;11.054;2023-02-14T06:41:02;99999.56;;;6.34;100.00
19447;BME280;9862;49.462;11.054;2023-02-14T06:43:31;100004.38;;;6.19;100.00
19447;BME280;9862;49.462;11.054;2023-02-14T06:45:58;100003.78;;;6.15;100.00
19447;BME280;9862;49.462;11.054;2023-02-14T06:48:24;99996.31;;;6.20;100.00
19447;BME280;9862;49.462;11.054;2023-02-14T06:50:51;100005.44;;;6.16;100.00
19447;BME280;9862;49.462;11.054;2023-02-14T06:53:17;100004.75;;;6.14;100.00
19447;BME280;9862;49.462;11.054;2023-02-14T06:55:44;100004.25;;;6.20;100.00
19447;BME280;9862;49.462;11.054;2023-02-14T06:58:11;100006.34;;;6.26;100.00
19447;BME280;9862;49.462;11.054;2023-02-14T07:00:39;100008.81;;;6.18;100.00
19447;BME280;9862;49.462;11.054;2023-02-14T07:03:06;100006.78;;;6.01;100.00
19447;BME280;9862;49.462;11.054;2023-02-14T07:05:33;100010.63;;;5.97;100.00
19447;BME280;9862;49.462;11.054;2023-02-14T07:08:00;100001.75;;;5.98;100.00
19447;BME280;9862;49.462;11.054;2023-02-14T07:10:27;99992.59;;;6.02;100.00
19447;BME280;9862;49.462;11.054;2023-02-14T07:12:54;99996.03;;;6.23;100.00
19447;BME280;9862;49.462;11.054;2023-02-14T07:15:20;99987.34;;;6.12;100.00
19447;BME280;9862;49.462;11.054;2023-02-14T07:17:48;99995.16;;;6.13;100.00
19447;BME280;9862;49.462;11.054;2023-02-14T07:20:15;99995.66;;;6.07;100.00
19447;BME280;9862;49.462;11.054;2023-02-14T07:22:42;100000.72;;;6.10;100.00
19447;BME280;9862;49.462;11.054;2023-02-14T07:25:10;100006.00;;;6.10;100.00
19447;BME280;9862;49.462;11.054;2023-02-14T07:27:38;100006.56;;;6.14;100.00
19447;BME280;9862;49.462;11.054;2023-02-14T07:30:06;100000.72;;;6.10;100.00
19447;BME280;9862;49.462;11.054;2023-02-14T07:32:33;100005.81;;;6.02;100.00
19447;BME280;9862;49.462;11.054;2023-02-14T07:35:01;99998.59;;;6.04;100.00
19447;BME280;9862;49.462;11.054;2023-02-14T07:37:27;99996.25;;;6.11;100.00
19447;BME280;9862;49.462;11.054;2023-02-14T07:39:54;100004.06;;;6.12;100.00
19447;BME280;9862;49.462;11.054;2023-02-14T07:42:21;99995.59;;;6.18;100.00
19447;BME280;9862;49.462;11.054;2023-02-14T07:44:47;100001.59;;;6.20;100.00
19447;BME280;9862;49.462;11.054;2023-02-14T07:47:14;99996.31;;;6.20;100.00
19447;BME280;9862;49.462;11.054;2023-02-14T07:49:41;99995.47;;;6.20;100.00
19447;BME280;9862;49.462;11.054;2023-02-14T07:52:09;99994.53;;;6.30;100.00
19447;BME280;9862;49.462;11.054;2023-02-14T07:54:35;99994.22;;;6.24;100.00
19447;BME280;9862;49.462;11.054;2023-02-14T07:57:03;99996.41;;;6.09;100.00
19447;BME280;9862;49.462;11.054;2023-02-14T07:59:29;99987.59;;;5.99;100.00
19447;BME280;9862;49.462;11.054;2023-02-14T08:01:56;99997.69;;;5.94;100.00
19447;BME280;9862;49.462;11.054;2023-02-14T08:04:23;99989.25;;;6.00;100.00
19447;BME280;9862;49.462;11.054;2023-02-14T08:06:50;99988.47;;;6.09;100.00
19447;BME280;9862;49.462;11.054;2023-02-14T08:09:19;99995.47;;;6.20;100.00
19447;BME280;9862;49.462;11.054;2023-02-14T08:11:50;99986.59;;;6.30;100.00
19447;BME280;9862;49.462;11.054;2023-02-14T08:14:34;99975.94;;;6.42;100.00
19447;BME280;9862;49.462;11.054;2023-02-14T08:17:01;99979.59;;;6.50;100.00
19447;BME280;9862;49.462;11.054;2023-02-14T08:19:28;99972.91;;;6.56;100.00
19447;BME280;9862;49.462;11.054;2023-02-14T08:21:57;99976.34;;;6.37;100.00
19447;BME280;9862;49.462;11.054;2023-02-14T08:24:25;99977.69;;;6.31;100.00
19447;BME280;9862;49.462;11.054;2023-02-14T08:26:52;99974.59;;;6.26;100.00
19447;BME280;9862;49.462;11.054;2023-02-14T08:29:19;99971.25;;;6.24;100.00
19447;BME280;9862;49.462;11.054;2023-02-14T08:31:46;99979.38;;;6.32;100.00
19447;BME280;9862;49.462;11.054;2023-02-14T08:34:13;99978.50;;;6.22;100.00
19447;BME280;9862;49.462;11.054;2023-02-14T08:36:40;99981.59;;;6.27;100.00
19447;BME280;9862;49.462;11.054;2023-02-14T08:39:07;99978.69;;;6.30;100.00
19447;BME280;9862;49.462;11.054;2023-02-14T08:41:36;99978.50;;;6.22;100.00
19447;BME280;9862;49.462;11.054;2023-02-14T08:44:03;99977.00;;;6.29;100.00
19447;BME280;9862;49.462;11.054;2023-02-14T08:46:30;99983.06;;;6.51;100.00
19447;BME280;9862;49.462;11.054;2023-02-14T08:48:56;99974.00;;;6.53;100.00
19447;BME280;9862;49.462;11.054;2023-02-14T08:51:23;99982.09;;;6.52;100.00
19447;BME280;9862;49.462;11.054;2023-02-14T08:53:51;99981.13;;;6.53;100.00
19447;BME280;9862;49.462;11.054;2023-02-14T08:56:19;99968.88;;;6.52;100.00
19447;BME280;9862;49.462;11.054;2023-02-14T08:58:50;99969.84;;;6.51;100.00
19447;BME280;9862;49.462;11.054;2023-02-14T09:01:17;99974.31;;;6.60;100.00
19447;BME280;9862;49.462;11.054;2023-02-14T09:03:44;99974.47;;;6.58;100.00
19447;BME280;9862;49.462;11.054;2023-02-14T09:06:12;99970.03;;;6.69;100.00
19447;BME280;9862;49.462;11.054;2023-02-14T09:08:41;99969.16;;;6.58;100.00
19447;BME280;9862;49.462;11.054;2023-02-14T09:11:10;99968.03;;;6.51;100.00
19447;BME280;9862;49.462;11.054;2023-02-14T09:13:36;99970.81;;;6.50;100.00
19447;BME280;9862;49.462;11.054;2023-02-14T09:16:05;99967.06;;;6.52;100.00
19447;BME280;9862;49.462;11.054;2023-02-14T09:18:32;99967.78;;;6.64;100.00
19447;BME280;9862;49.462;11.054;2023-02-14T09:20:58;99968.06;;;6.61;100.00
19447;BME280;9862;49.462;11.054;2023-02-14T09:23:26;99966.78;;;6.65;100.00
19447;BME280;9862;49.462;11.054;2023-02-14T09:25:59;99976.00;;;6.71;100.00
19447;BME280;9862;49.462;11.054;2023-02-14T09:28:26;99966.72;;;6.76;100.00
19447;BME280;9862;49.462;11.054;2023-02-14T09:30:53;99961.53;;;6.75;100.00
19447;BME280;9862;49.462;11.054;2023-02-14T09:33:21;99958.03;;;6.74;100.00
19447;BME280;9862;49.462;11.054;2023-02-14T09:35:48;99957.66;;;6.79;100.00
19447;BME280;9862;49.462;11.054;2023-02-14T09:38:16;99953.72;;;6.73;100.00
19447;BME280;9862;49.462;11.054;2023-02-14T09:40:43;99958.19;;;6.73;100.00
19447;BME280;9862;49.462;11.054;2023-02-14T09:43:17;99965.88;;;6.76;100.00
19447;BME280;9862;49.462;11.054;2023-02-14T09:45:50;99961.97;;;6.80;100.00
19447;BME280;9862;49.462;11.054;2023-02-14T09:48:23;99952.34;;;6.79;100.00
19447;BME280;9862;49.462;11.054;2023-02-14T09:50:53;99961.13;;;6.79;100.00
19447;BME280;9862;49.462;11.054;2023-02-14T09:53:25;99955.31;;;6.85;100.00
19447;BME280;9862;49.462;11.054;2023-02-14T09:55:58;99954.72;;;6.92;100.00
19447;BME280;9862;49.462;11.054;2023-02-14T09:58:30;99952.78;;;6.94;100.00
19447;BME280;9862;49.462;11.054;2023-02-14T10:01:04;99963.13;;;6.97;100.00
19447;BME280;9862;49.462;11.054;2023-02-14T10:04:09;99964.34;;;6.93;100.00
19447;BME280;9862;49.462;11.054;2023-02-14T10:06:47;99963.25;;;6.85;100.00
19447;BME280;9862;49.462;11.054;2023-02-14T10:09:25;99958.50;;;6.79;100.00
19447;BME280;9862;49.462;11.054;2023-02-14T10:11:58;99957.78;;;6.77;100.00
19447;BME280;9862;49.462;11.054;2023-02-14T10:14:28;99958.06;;;6.84;100.00
19447;BME280;9862;49.462;11.054;2023-02-14T10:17:03;99960.59;;;6.85;100.00
19447;BME280;9862;49.462;11.054;2023-02-14T10:19:37;99968.09;;;6.80;100.00
19447;BME280;9862;49.462;11.054;2023-02-14T10:22:08;99957.22;;;6.83;100.00
19447;BME280;9862;49.462;11.054;2023-02-14T10:24:42;99961.13;;;6.79;100.00
19447;BME280;9862;49.462;11.054;2023-02-14T10:27:17;99950.38;;;6.71;100.00
19447;BME280;9862;49.462;11.054;2023-02-14T10:29:49;99953.00;;;6.62;100.00
19447;BME280;9862;49.462;11.054;2023-02-14T10:32:20;99954.69;;;6.63;100.00
19447;BME280;9862;49.462;11.054;2023-02-14T10:34:50;99944.97;;;6.73;100.00
19447;BME280;9862;49.462;11.054;2023-02-14T10:37:33;99941.34;;;6.83;100.00
19447;BME280;9862;49.462;11.054;2023-02-14T10:40:27;99940.28;;;6.96;100.00
19447;BME280;9862;49.462;11.054;2023-02-14T10:43:01;99943.75;;;7.06;100.00
19447;BME280;9862;49.462;11.054;2023-02-14T10:45:38;99944.16;;;7.11;100.00
19447;BME280;9862;49.462;11.054;2023-02-14T10:48:16;99947.63;;;7.11;100.00
19447;BME280;9862;49.462;11.054;2023-02-14T10:50:53;99940.28;;;7.15;100.00
19447;BME280;9862;49.462;11.054;2023-02-14T10:53:26;99938.03;;;7.20;100.00
19447;BME280;9862;49.462;11.054;2023-02-14T10:56:01;99933.56;;;7.30;100.00
19447;BME280;9862;49.462;11.054;2023-02-14T10:58:34;99934.00;;;7.35;100.00
19447;BME280;9862;49.462;11.054;2023-02-14T11:01:04;99930.63;;;7.33;100.00
19447;BME280;9862;49.462;11.054;2023-02-14T11:03:33;99925.22;;;7.35;100.00
19447;BME280;9862;49.462;11.054;2023-02-14T11:06:03;99928.84;;;7.34;100.00
19447;BME280;9862;49.462;11.054;2023-02-14T11:08:32;99921.03;;;7.13;100.00
19447;BME280;9862;49.462;11.054;2023-02-14T11:11:03;99930.78;;;7.03;100.00
19447;BME280;9862;49.462;11.054;2023-02-14T11:13:35;99925.91;;;6.98;100.00
19447;BME280;9862;49.462;11.054;2023-02-14T11:16:05;99916.69;;;7.12;100.00
19447;BME280;9862;49.462;11.054;2023-02-14T11:18:33;99911.25;;;6.84;100.00
19447;BME280;9862;49.462;11.054;2023-02-14T11:21:05;99918.81;;;6.89;100.00
19447;BME280;9862;49.462;11.054;2023-02-14T11:23:35;99916.97;;;6.80;100.00
19447;BME280;9862;49.462;11.054;2023-02-14T11:26:06;99914.28;;;6.51;100.00
19447;BME280;9862;49.462;11.054;2023-02-14T11:28:34;99915.41;;;6.48;100.00
19447;BME280;9862;49.462;11.054;2023-02-14T11:31:01;99905.00;;;6.66;100.00
19447;BME280;9862;49.462;11.054;2023-02-14T11:33:33;99903.91;;;6.78;100.00
19447;BME280;9862;49.462;11.054;2023-02-14T11:36:09;99900.56;;;6.96;100.00
19447;BME280;9862;49.462;11.054;2023-02-14T11:38:38;99899.44;;;6.98;100.00
19447;BME280;9862;49.462;11.054;2023-02-14T11:41:08;99901.25;;;7.07;100.00
19447;BME280;9862;49.462;11.054;2023-02-14T11:43:37;99898.03;;;7.13;100.00
19447;BME280;9862;49.462;11.054;2023-02-14T11:46:24;99892.59;;;7.25;100.00
19447;BME280;9862;49.462;11.054;2023-02-14T11:48:57;99890.91;;;7.33;100.00
19447;BME280;9862;49.462;11.054;2023-02-14T11:51:28;99887.00;;;7.37;100.00
19447;BME280;9862;49.462;11.054;2023-02-14T11:53:57;99879.03;;;7.47;100.00
19447;BME280;9862;49.462;11.054;2023-02-14T11:56:47;99882.91;;;7.53;100.00
19447;BME280;9862;49.462;11.054;2023-02-14T11:59:24;99882.19;;;7.60;100.00
19447;BME280;9862;49.462;11.054;2023-02-14T12:01:53;99875.19;;;7.69;100.00
19447;BME280;9862;49.462;11.054;2023-02-14T12:04:26;99864.03;;;7.75;100.00
19447;BME280;9862;49.462;11.054;2023-02-14T12:07:12;99869.59;;;7.82;100.00
19447;BME280;9862;49.462;11.054;2023-02-14T12:09:39;99861.88;;;7.88;100.00
19447;BME280;9862;49.462;11.054;2023-02-14T12:12:15;99855.59;;;7.89;100.00
19447;BME280;9862;49.462;11.054;2023-02-14T12:14:42;99853.78;;;7.90;100.00
19447;BME280;9862;49.462;11.054;2023-02-14T12:17:17;99849.72;;;7.95;100.00
19447;BME280;9862;49.462;11.054;2023-02-14T12:19:51;99853.97;;;8.06;100.00
19447;BME280;9862;49.462;11.054;2023-02-14T12:22:25;99841.41;;;8.08;100.00
19447;BME280;9862;49.462;11.054;2023-02-14T12:24:59;99844.72;;;8.10;100.00
19447;BME280;9862;49.462;11.054;2023-02-14T12:27:31;99839.75;;;8.07;100.00
19447;BME280;9862;49.462;11.054;2023-02-14T12:30:10;99821.44;;;8.14;100.00
19447;BME280;9862;49.462;11.054;2023-02-14T12:32:44;99821.47;;;8.04;100.00
19447;BME280;9862;49.462;11.054;2023-02-14T12:35:14;99819.13;;;8.01;100.00
19447;BME280;9862;49.462;11.054;2023-02-14T12:37:52;99818.22;;;7.92;100.00
19447;BME280;9862;49.462;11.054;2023-02-14T12:40:30;99823.72;;;7.99;100.00
19447;BME280;9862;49.462;11.054;2023-02-14T12:43:07;99817.16;;;8.03;100.00
19447;BME280;9862;49.462;11.054;2023-02-14T12:46:00;99807.25;;;8.05;100.00
19447;BME280;9862;49.462;11.054;2023-02-14T12:48:40;99812.91;;;8.10;100.00
19447;BME280;9862;49.462;11.054;2023-02-14T12:51:15;99810.97;;;8.12;100.00
19447;BME280;9862;49.462;11.054;2023-02-14T12:54:01;99804.06;;;8.19;100.00
19447;BME280;9862;49.462;11.054;2023-02-14T12:56:43;99803.94;;;8.21;100.00
19447;BME280;9862;49.462;11.054;2023-02-14T12:59:24;99796.41;;;8.16;100.00
19447;BME280;9862;49.462;11.054;2023-02-14T13:02:16;99803.63;;;8.24;100.00
19447;BME280;9862;49.462;11.054;2023-02-14T13:04:53;99799.69;;;8.28;100.00
19447;BME280;9862;49.462;11.054;2023-02-14T13:07:38;99794.69;;;8.25;100.00
19447;BME280;9862;49.462;11.054;2023-02-14T13:10:21;99793.03;;;8.24;100.00
19447;BME280;9862;49.462;11.054;2023-02-14T13:12:53;99803.47;;;8.25;100.00
19447;BME280;9862;49.462;11.054;2023-02-14T13:15:31;99795.69;;;8.24;100.00
19447;BME280;9862;49.462;11.054;2023-02-14T13:18:06;99786.13;;;8.13;100.00
19447;BME280;9862;49.462;11.054;2023-02-14T13:20:41;99793.84;;;8.07;100.00